sensor_id;sensor_type;location;lat;lon;timestamp;P1;durP1;ratioP1;P2;durP2;ratioP2
15603;SDS011;7902;49.042;9.092;2023-11-21T00:01:04;15.73;;;0.93;;
15603;SDS011;7902;49.042;9.092;2023-11-21T00:03:31;14.33;;;1.40;;
15603;SDS011;7902;49.042;9.092;2023-11-21T00:05:57;14.00;;;1.40;;
15603;SDS011;7902;49.042;9.092;2023-11-21T00:08:23;24.60;;;1.50;;
15603;SDS011;7902;49.042;9.092;2023-11-21T00:10:49;11.70;;;1.20;;
15603;SDS011;7902;49.042;9.092;2023-11-21T00:13:14;11.50;;;1.00;;
15603;SDS011;7902;49.042;9.092;2023-11-21T00:15:40;11.13;;;0.87;;
15603;SDS011;7902;49.042;9.092;2023-11-21T00:18:06;12.57;;;1.00;;
15603;SDS011;7902;49.042;9.092;2023-11-21T00:20:32;12.60;;;1.60;;
15603;SDS011;7902;49.042;9.092;2023-11-21T00:22:58;19.03;;;1.37;;
15603;SDS011;7902;49.042;9.092;2023-11-21T00:25:25;26.17;;;1.67;;
15603;SDS011;7902;49.042;9.092;2023-11-21T00:27:51;15.73;;;1.40;;
15603;SDS011;7902;49.042;9.092;2023-11-21T00:30:17;12.47;;;1.60;;
15603;SDS011;7902;49.042;9.092;2023-11-21T00:32:42;15.30;;;1.40;;
15603;SDS011;7902;49.042;9.092;2023-11-21T00:35:08;13.60;;;1.20;;
15603;SDS011;7902;49.042;9.092;2023-11-21T00:37:34;14.53;;;1.20;;
15603;SDS011;7902;49.042;9.092;2023-11-21T00:40:00;12.83;;;1.17;;
15603;SDS011;7902;49.042;9.092;2023-11-21T00:42:30;14.70;;;1.90;;
15603;SDS011;7902;49.042;9.092;2023-11-21T00:44:59;11.30;;;1.10;;
15603;SDS011;7902;49.042;9.092;2023-11-21T00:47:25;11.70;;;1.07;;
15603;SDS011;7902;49.042;9.092;2023-11-21T00:49:51;16.23;;;1.60;;
15603;SDS011;7902;49.042;9.092;2023-11-21T00:52:17;11.20;;;1.60;;
15603;SDS011;7902;49.042;9.092;2023-11-21T00:54:43;13.13;;;1.30;;
15603;SDS011;7902;49.042;9.092;2023-11-21T00:57:08;12.33;;;0.90;;
15603;SDS011;7902;49.042;9.092;2023-11-21T00:59:34;14.50;;;1.00;;
15603;SDS011;7902;49.042;9.092;2023-11-21T01:02:01;11.90;;;0.80;;
15603;SDS011;7902;49.042;9.092;2023-11-21T01:04:27;10.60;;;0.90;;
15603;SDS011;7902;49.042;9.092;2023-11-21T01:06:53;11.13;;;1.00;;
15603;SDS011;7902;49.042;9.092;2023-11-21T01:09:19;10.87;;;0.83;;
15603;SDS011;7902;49.042;9.092;2023-11-21T01:11:45;11.37;;;1.23;;
15603;SDS011;7902;49.042;9.092;2023-11-21T01:14:11;12.40;;;0.93;;
15603;SDS011;7902;49.042;9.092;2023-11-21T01:16:39;10.90;;;0.80;;
15603;SDS011;7902;49.042;9.092;2023-11-21T01:19:04;11.90;;;1.20;;
15603;SDS011;7902;49.042;9.092;2023-11-21T01:21:31;13.40;;;1.00;;
15603;SDS011;7902;49.042;9.092;2023-11-21T01:23:57;24.03;;;1.53;;
15603;SDS011;7902;49.042;9.092;2023-11-21T01:26:23;16.00;;;2.37;;
15603;SDS011;7902;49.042;9.092;2023-11-21T01:28:49;11.37;;;1.30;;
15603;SDS011;7902;49.042;9.092;2023-11-21T01:31:15;12.10;;;1.30;;
15603;SDS011;7902;49.042;9.092;2023-11-21T01:33:41;14.17;;;2.03;;
15603;SDS011;7902;49.042;9.092;2023-11-21T01:36:07;12.53;;;2.50;;
15603;SDS011;7902;49.042;9.092;2023-11-21T01:38:33;11.40;;;1.60;;
15603;SDS011;7902;49.042;9.092;2023-11-21T01:41:00;11.10;;;1.17;;
15603;SDS011;7902;49.042;9.092;2023-11-21T01:43:26;10.63;;;1.00;;
15603;SDS011;7902;49.042;9.092;2023-11-21T01:45:54;12.80;;;1.20;;
15603;SDS011;7902;49.042;9.092;2023-11-21T01:48:22;10.80;;;1.10;;
15603;SDS011;7902;49.042;9.092;2023-11-21T01:50:49;14.83;;;3.30;;
15603;SDS011;7902;49.042;9.092;2023-11-21T01:53:16;13.10;;;1.93;;
15603;SDS011;7902;49.042;9.092;2023-11-21T01:55:42;15.27;;;3.60;;
15603;SDS011;7902;49.042;9.092;2023-11-21T01:58:09;16.03;;;2.07;;
15603;SDS011;7902;49.042;9.092;2023-11-21T02:00:37;15.23;;;2.30;;
15603;SDS011;7902;49.042;9.092;2023-11-21T02:03:04;13.00;;;2.00;;
15603;SDS011;7902;49.042;9.092;2023-11-21T02:05:30;13.83;;;2.40;;
15603;SDS011;7902;49.042;9.092;2023-11-21T02:07:57;13.70;;;2.00;;
15603;SDS011;7902;49.042;9.092;2023-11-21T02:10:23;13.60;;;2.20;;
15603;SDS011;7902;49.042;9.092;2023-11-21T02:12:49;16.20;;;2.50;;
15603;SDS011;7902;49.042;9.092;2023-11-21T02:15:16;15.27;;;2.23;;
15603;SDS011;7902;49.042;9.092;2023-11-21T02:17:49;14.53;;;2.57;;
15603;SDS011;7902;49.042;9.092;2023-11-21T02:20:19;13.27;;;2.20;;
15603;SDS011;7902;49.042;9.092;2023-11-21T02:22:51;14.80;;;2.17;;
15603;SDS011;7902;49.042;9.092;2023-11-21T02:25:27;15.97;;;1.80;;
15603;SDS011;7902;49.042;9.092;2023-11-21T02:27:57;12.67;;;2.00;;
15603;SDS011;7902;49.042;9.092;2023-11-21T02:30:25;13.50;;;2.37;;
15603;SDS011;7902;49.042;9.092;2023-11-21T02:32:53;12.27;;;1.90;;
15603;SDS011;7902;49.042;9.092;2023-11-21T02:35:20;15.50;;;2.70;;
15603;SDS011;7902;49.042;9.092;2023-11-21T02:37:47;14.17;;;1.40;;
15603;SDS011;7902;49.042;9.092;2023-11-21T02:40:13;15.10;;;1.70;;
15603;SDS011;7902;49.042;9.092;2023-11-21T02:42:43;13.37;;;1.70;;
15603;SDS011;7902;49.042;9.092;2023-11-21T02:45:09;12.67;;;1.77;;
15603;SDS011;7902;49.042;9.092;2023-11-21T02:47:38;12.43;;;1.53;;
15603;SDS011;7902;49.042;9.092;2023-11-21T02:50:05;11.77;;;1.60;;
15603;SDS011;7902;49.042;9.092;2023-11-21T02:52:33;10.33;;;0.90;;
15603;SDS011;7902;49.042;9.092;2023-11-21T02:55:03;10.47;;;0.80;;
15603;SDS011;7902;49.042;9.092;2023-11-21T02:57:30;19.57;;;1.20;;
15603;SDS011;7902;49.042;9.092;2023-11-21T02:59:56;13.43;;;1.10;;
15603;SDS011;7902;49.042;9.092;2023-11-21T03:02:22;10.97;;;1.20;;
15603;SDS011;7902;49.042;9.092;2023-11-21T03:04:48;15.50;;;0.90;;
15603;SDS011;7902;49.042;9.092;2023-11-21T03:07:15;13.80;;;0.90;;
15603;SDS011;7902;49.042;9.092;2023-11-21T03:09:41;17.10;;;1.20;;
15603;SDS011;7902;49.042;9.092;2023-11-21T03:12:07;11.77;;;1.27;;
15603;SDS011;7902;49.042;9.092;2023-11-21T03:14:34;12.80;;;0.90;;
15603;SDS011;7902;49.042;9.092;2023-11-21T03:17:00;13.50;;;1.20;;
15603;SDS011;7902;49.042;9.092;2023-11-21T03:19:26;13.37;;;1.30;;
15603;SDS011;7902;49.042;9.092;2023-11-21T03:21:52;13.67;;;1.10;;
15603;SDS011;7902;49.042;9.092;2023-11-21T03:24:18;12.43;;;1.27;;
15603;SDS011;7902;49.042;9.092;2023-11-21T03:26:45;14.17;;;0.90;;
15603;SDS011;7902;49.042;9.092;2023-11-21T03:29:14;11.33;;;1.13;;
15603;SDS011;7902;49.042;9.092;2023-11-21T03:31:40;10.43;;;0.83;;
15603;SDS011;7902;49.042;9.092;2023-11-21T03:34:06;10.93;;;1.00;;
15603;SDS011;7902;49.042;9.092;2023-11-21T03:36:35;11.87;;;0.90;;
15603;SDS011;7902;49.042;9.092;2023-11-21T03:39:02;11.13;;;1.07;;
15603;SDS011;7902;49.042;9.092;2023-11-21T03:41:28;11.93;;;0.80;;
15603;SDS011;7902;49.042;9.092;2023-11-21T03:43:54;12.20;;;1.00;;
15603;SDS011;7902;49.042;9.092;2023-11-21T03:46:20;12.60;;;1.03;;
15603;SDS011;7902;49.042;9.092;2023-11-21T03:48:45;10.37;;;0.97;;
15603;SDS011;7902;49.042;9.092;2023-11-21T03:51:11;13.70;;;1.00;;
15603;SDS011;7902;49.042;9.092;2023-11-21T03:53:37;11.33;;;1.50;;
15603;SDS011;7902;49.042;9.092;2023-11-21T03:56:03;10.60;;;0.97;;
15603;SDS011;7902;49.042;9.092;2023-11-21T03:58:29;10.30;;;1.13;;
15603;SDS011;7902;49.042;9.092;2023-11-21T04:00:55;13.77;;;1.07;;
15603;SDS011;7902;49.042;9.092;2023-11-21T04:03:21;13.40;;;1.00;;
15603;SDS011;7902;49.042;9.092;2023-11-21T04:05:47;10.03;;;1.00;;
15603;SDS011;7902;49.042;9.092;2023-11-21T04:08:13;15.93;;;1.10;;
15603;SDS011;7902;49.042;9.092;2023-11-21T04:10:39;10.73;;;1.10;;
15603;SDS011;7902;49.042;9.092;2023-11-21T04:13:05;13.00;;;1.30;;
15603;SDS011;7902;49.042;9.092;2023-11-21T04:15:32;12.10;;;2.13;;
15603;SDS011;7902;49.042;9.092;2023-11-21T04:17:58;11.90;;;1.80;;
15603;SDS011;7902;49.042;9.092;2023-11-21T04:20:24;15.87;;;3.83;;
15603;SDS011;7902;49.042;9.092;2023-11-21T04:22:50;17.10;;;4.13;;
15603;SDS011;7902;49.042;9.092;2023-11-21T04:25:16;11.03;;;1.80;;
15603;SDS011;7902;49.042;9.092;2023-11-21T04:27:43;11.83;;;1.57;;
15603;SDS011;7902;49.042;9.092;2023-11-21T04:30:10;13.03;;;1.20;;
15603;SDS011;7902;49.042;9.092;2023-11-21T04:32:37;13.00;;;0.90;;
15603;SDS011;7902;49.042;9.092;2023-11-21T04:35:03;13.27;;;1.17;;
15603;SDS011;7902;49.042;9.092;2023-11-21T04:37:29;10.87;;;1.10;;
15603;SDS011;7902;49.042;9.092;2023-11-21T04:39:55;13.00;;;1.33;;
15603;SDS011;7902;49.042;9.092;2023-11-21T04:42:21;10.87;;;1.03;;
15603;SDS011;7902;49.042;9.092;2023-11-21T04:44:48;10.73;;;0.80;;
15603;SDS011;7902;49.042;9.092;2023-11-21T04:47:14;13.30;;;0.90;;
15603;SDS011;7902;49.042;9.092;2023-11-21T04:49:43;10.40;;;1.10;;
15603;SDS011;7902;49.042;9.092;2023-11-21T04:52:09;15.50;;;1.30;;
15603;SDS011;7902;49.042;9.092;2023-11-21T04:54:35;9.83;;;0.90;;
15603;SDS011;7902;49.042;9.092;2023-11-21T04:57:01;12.00;;;0.80;;
15603;SDS011;7902;49.042;9.092;2023-11-21T04:59:27;10.77;;;1.10;;
15603;SDS011;7902;49.042;9.092;2023-11-21T05:01:53;10.30;;;0.80;;
15603;SDS011;7902;49.042;9.092;2023-11-21T05:04:19;12.23;;;1.03;;
15603;SDS011;7902;49.042;9.092;2023-11-21T05:06:47;12.83;;;1.90;;
15603;SDS011;7902;49.042;9.092;2023-11-21T05:09:14;12.10;;;1.20;;
15603;SDS011;7902;49.042;9.092;2023-11-21T05:11:41;10.30;;;1.00;;
15603;SDS011;7902;49.042;9.092;2023-11-21T05:14:07;10.53;;;1.20;;
15603;SDS011;7902;49.042;9.092;2023-11-21T05:16:34;9.37;;;0.87;;
15603;SDS011;7902;49.042;9.092;2023-11-21T05:19:00;10.00;;;0.80;;
15603;SDS011;7902;49.042;9.092;2023-11-21T05:21:27;13.97;;;1.27;;
15603;SDS011;7902;49.042;9.092;2023-11-21T05:23:55;10.43;;;0.90;;
15603;SDS011;7902;49.042;9.092;2023-11-21T05:26:21;12.33;;;1.80;;
15603;SDS011;7902;49.042;9.092;2023-11-21T05:28:47;15.83;;;3.80;;
15603;SDS011;7902;49.042;9.092;2023-11-21T05:31:13;13.67;;;4.37;;
15603;SDS011;7902;49.042;9.092;2023-11-21T05:33:39;11.87;;;2.23;;
15603;SDS011;7902;49.042;9.092;2023-11-21T05:36:06;16.70;;;1.93;;
15603;SDS011;7902;49.042;9.092;2023-11-21T05:38:33;9.70;;;1.10;;
15603;SDS011;7902;49.042;9.092;2023-11-21T05:41:01;13.27;;;1.37;;
15603;SDS011;7902;49.042;9.092;2023-11-21T05:43:27;13.93;;;1.30;;
15603;SDS011;7902;49.042;9.092;2023-11-21T05:45:55;10.37;;;1.23;;
15603;SDS011;7902;49.042;9.092;2023-11-21T05:48:21;11.77;;;1.97;;
15603;SDS011;7902;49.042;9.092;2023-11-21T05:50:47;16.70;;;1.60;;
15603;SDS011;7902;49.042;9.092;2023-11-21T05:53:15;11.30;;;1.27;;
15603;SDS011;7902;49.042;9.092;2023-11-21T05:55:42;10.83;;;1.03;;
15603;SDS011;7902;49.042;9.092;2023-11-21T05:58:08;12.40;;;1.27;;
15603;SDS011;7902;49.042;9.092;2023-11-21T06:00:34;9.90;;;1.10;;
15603;SDS011;7902;49.042;9.092;2023-11-21T06:03:00;10.77;;;1.27;;
15603;SDS011;7902;49.042;9.092;2023-11-21T06:05:26;10.37;;;1.13;;
15603;SDS011;7902;49.042;9.092;2023-11-21T06:07:53;11.20;;;1.20;;
15603;SDS011;7902;49.042;9.092;2023-11-21T06:10:20;11.23;;;1.20;;
15603;SDS011;7902;49.042;9.092;2023-11-21T06:12:47;13.13;;;1.30;;
15603;SDS011;7902;49.042;9.092;2023-11-21T06:15:13;10.57;;;1.07;;
15603;SDS011;7902;49.042;9.092;2023-11-21T06:17:44;10.97;;;1.50;;
15603;SDS011;7902;49.042;9.092;2023-11-21T06:20:14;12.33;;;1.53;;
15603;SDS011;7902;49.042;9.092;2023-11-21T06:22:41;12.67;;;1.23;;
15603;SDS011;7902;49.042;9.092;2023-11-21T06:25:08;11.10;;;1.63;;
15603;SDS011;7902;49.042;9.092;2023-11-21T06:27:37;11.63;;;1.20;;
15603;SDS011;7902;49.042;9.092;2023-11-21T06:30:04;11.13;;;1.40;;
15603;SDS011;7902;49.042;9.092;2023-11-21T06:32:32;11.13;;;1.60;;
15603;SDS011;7902;49.042;9.092;2023-11-21T06:34:58;12.37;;;1.70;;
15603;SDS011;7902;49.042;9.092;2023-11-21T06:37:28;15.20;;;1.70;;
15603;SDS011;7902;49.042;9.092;2023-11-21T06:39:54;10.70;;;1.40;;
15603;SDS011;7902;49.042;9.092;2023-11-21T06:42:22;10.70;;;1.10;;
15603;SDS011;7902;49.042;9.092;2023-11-21T06:44:49;11.30;;;1.60;;
15603;SDS011;7902;49.042;9.092;2023-11-21T06:47:17;11.10;;;1.60;;
15603;SDS011;7902;49.042;9.092;2023-11-21T06:49:45;12.57;;;1.77;;
15603;SDS011;7902;49.042;9.092;2023-11-21T06:52:14;12.87;;;1.73;;
15603;SDS011;7902;49.042;9.092;2023-11-21T06:54:40;17.30;;;2.00;;
15603;SDS011;7902;49.042;9.092;2023-11-21T06:57:06;11.23;;;1.70;;
15603;SDS011;7902;49.042;9.092;2023-11-21T06:59:33;11.57;;;2.10;;
15603;SDS011;7902;49.042;9.092;2023-11-21T07:01:59;19.90;;;3.27;;
15603;SDS011;7902;49.042;9.092;2023-11-21T07:04:25;15.77;;;2.20;;
15603;SDS011;7902;49.042;9.092;2023-11-21T07:06:54;14.90;;;2.63;;
15603;SDS011;7902;49.042;9.092;2023-11-21T07:09:20;12.60;;;2.10;;
15603;SDS011;7902;49.042;9.092;2023-11-21T07:11:49;11.97;;;1.90;;
15603;SDS011;7902;49.042;9.092;2023-11-21T07:14:15;15.13;;;2.33;;
15603;SDS011;7902;49.042;9.092;2023-11-21T07:16:42;15.13;;;2.30;;
15603;SDS011;7902;49.042;9.092;2023-11-21T07:19:08;16.53;;;2.50;;
15603;SDS011;7902;49.042;9.092;2023-11-21T07:21:34;22.40;;;2.13;;
15603;SDS011;7902;49.042;9.092;2023-11-21T07:24:04;20.40;;;2.80;;
15603;SDS011;7902;49.042;9.092;2023-11-21T07:26:31;17.63;;;2.43;;
15603;SDS011;7902;49.042;9.092;2023-11-21T07:28:59;20.47;;;2.80;;
15603;SDS011;7902;49.042;9.092;2023-11-21T07:31:25;13.23;;;2.53;;
15603;SDS011;7902;49.042;9.092;2023-11-21T07:33:52;15.50;;;2.40;;
15603;SDS011;7902;49.042;9.092;2023-11-21T07:36:21;12.47;;;2.70;;
15603;SDS011;7902;49.042;9.092;2023-11-21T07:38:47;18.53;;;2.73;;
15603;SDS011;7902;49.042;9.092;2023-11-21T07:41:13;16.67;;;2.43;;
15603;SDS011;7902;49.042;9.092;2023-11-21T07:43:44;10.83;;;2.10;;
15603;SDS011;7902;49.042;9.092;2023-11-21T07:46:11;11.73;;;2.07;;
15603;SDS011;7902;49.042;9.092;2023-11-21T07:48:40;14.87;;;3.10;;
15603;SDS011;7902;49.042;9.092;2023-11-21T07:51:07;13.07;;;2.20;;
15603;SDS011;7902;49.042;9.092;2023-11-21T07:53:34;14.83;;;2.33;;
15603;SDS011;7902;49.042;9.092;2023-11-21T07:56:04;13.13;;;2.40;;
15603;SDS011;7902;49.042;9.092;2023-11-21T07:58:31;11.50;;;1.93;;
15603;SDS011;7902;49.042;9.092;2023-11-21T08:01:01;12.87;;;2.37;;
15603;SDS011;7902;49.042;9.092;2023-11-21T08:03:28;12.90;;;2.13;;
15603;SDS011;7902;49.042;9.092;2023-11-21T08:05:57;12.23;;;2.23;;
15603;SDS011;7902;49.042;9.092;2023-11-21T08:08:23;15.33;;;2.40;;
15603;SDS011;7902;49.042;9.092;2023-11-21T08:10:50;12.77;;;2.00;;
15603;SDS011;7902;49.042;9.092;2023-11-21T08:13:26;11.40;;;1.67;;
15603;SDS011;7902;49.042;9.092;2023-11-21T08:15:56;11.00;;;1.30;;
15603;SDS011;7902;49.042;9.092;2023-11-21T08:18:27;13.00;;;2.20;;
15603;SDS011;7902;49.042;9.092;2023-11-21T08:20:56;13.03;;;2.20;;
15603;SDS011;7902;49.042;9.092;2023-11-21T08:23:23;13.73;;;2.10;;
15603;SDS011;7902;49.042;9.092;2023-11-21T08:25:52;12.63;;;2.27;;
15603;SDS011;7902;49.042;9.092;2023-11-21T08:28:19;13.13;;;1.87;;
15603;SDS011;7902;49.042;9.092;2023-11-21T08:30:48;11.90;;;1.67;;
15603;SDS011;7902;49.042;9.092;2023-11-21T08:33:14;11.80;;;1.83;;
15603;SDS011;7902;49.042;9.092;2023-11-21T08:35:40;12.13;;;1.67;;
15603;SDS011;7902;49.042;9.092;2023-11-21T08:38:06;11.83;;;1.50;;
15603;SDS011;7902;49.042;9.092;2023-11-21T08:40:33;11.57;;;1.40;;
15603;SDS011;7902;49.042;9.092;2023-11-21T08:43:00;17.53;;;1.00;;
15603;SDS011;7902;49.042;9.092;2023-11-21T08:45:26;14.73;;;2.77;;
15603;SDS011;7902;49.042;9.092;2023-11-21T08:47:52;14.63;;;3.07;;
15603;SDS011;7902;49.042;9.092;2023-11-21T08:50:18;15.10;;;3.30;;
15603;SDS011;7902;49.042;9.092;2023-11-21T08:52:45;13.40;;;2.80;;
15603;SDS011;7902;49.042;9.092;2023-11-21T08:55:14;11.73;;;2.00;;
15603;SDS011;7902;49.042;9.092;2023-11-21T08:57:40;13.43;;;2.30;;
15603;SDS011;7902;49.042;9.092;2023-11-21T09:00:08;16.73;;;2.20;;
15603;SDS011;7902;49.042;9.092;2023-11-21T09:02:43;23.57;;;2.60;;
15603;SDS011;7902;49.042;9.092;2023-11-21T09:05:10;21.27;;;3.70;;
15603;SDS011;7902;49.042;9.092;2023-11-21T09:07:37;16.47;;;2.60;;
15603;SDS011;7902;49.042;9.092;2023-11-21T09:10:04;20.10;;;3.03;;
15603;SDS011;7902;49.042;9.092;2023-11-21T09:12:33;38.43;;;5.80;;
15603;SDS011;7902;49.042;9.092;2023-11-21T09:15:06;22.23;;;3.33;;
15603;SDS011;7902;49.042;9.092;2023-11-21T09:17:35;16.60;;;2.30;;
15603;SDS011;7902;49.042;9.092;2023-11-21T09:20:01;20.90;;;3.00;;
15603;SDS011;7902;49.042;9.092;2023-11-21T09:22:29;13.50;;;2.03;;
15603;SDS011;7902;49.042;9.092;2023-11-21T09:24:55;14.50;;;1.40;;
15603;SDS011;7902;49.042;9.092;2023-11-21T09:27:23;14.30;;;2.00;;
15603;SDS011;7902;49.042;9.092;2023-11-21T09:29:49;16.80;;;2.40;;
15603;SDS011;7902;49.042;9.092;2023-11-21T09:32:15;23.63;;;2.50;;
15603;SDS011;7902;49.042;9.092;2023-11-21T09:34:41;15.10;;;2.03;;
15603;SDS011;7902;49.042;9.092;2023-11-21T09:37:07;18.50;;;2.30;;
15603;SDS011;7902;49.042;9.092;2023-11-21T09:39:34;13.43;;;1.63;;
15603;SDS011;7902;49.042;9.092;2023-11-21T09:47:39;13.20;;;2.03;;
15603;SDS011;7902;49.042;9.092;2023-11-21T09:50:05;17.40;;;1.43;;
15603;SDS011;7902;49.042;9.092;2023-11-21T09:52:40;10.87;;;1.20;;
15603;SDS011;7902;49.042;9.092;2023-11-21T09:55:17;10.23;;;0.77;;
15603;SDS011;7902;49.042;9.092;2023-11-21T09:57:49;10.53;;;0.90;;
15603;SDS011;7902;49.042;9.092;2023-11-21T10:00:15;10.50;;;0.80;;
15603;SDS011;7902;49.042;9.092;2023-11-21T10:02:43;10.33;;;0.77;;
15603;SDS011;7902;49.042;9.092;2023-11-21T10:05:09;10.50;;;1.00;;
15603;SDS011;7902;49.042;9.092;2023-11-21T10:07:37;10.30;;;0.90;;
15603;SDS011;7902;49.042;9.092;2023-11-21T10:10:07;10.20;;;0.83;;
15603;SDS011;7902;49.042;9.092;2023-11-21T10:12:34;10.20;;;0.80;;
15603;SDS011;7902;49.042;9.092;2023-11-21T10:15:00;11.80;;;0.80;;
15603;SDS011;7902;49.042;9.092;2023-11-21T10:17:31;11.40;;;1.40;;
15603;SDS011;7902;49.042;9.092;2023-11-21T10:20:05;11.10;;;1.40;;
15603;SDS011;7902;49.042;9.092;2023-11-21T10:22:40;10.47;;;0.90;;
15603;SDS011;7902;49.042;9.092;2023-11-21T10:25:09;10.83;;;1.20;;
15603;SDS011;7902;49.042;9.092;2023-11-21T10:27:36;12.80;;;1.30;;
15603;SDS011;7902;49.042;9.092;2023-11-21T10:30:05;14.43;;;1.73;;
15603;SDS011;7902;49.042;9.092;2023-11-21T10:32:31;12.33;;;1.33;;
15603;SDS011;7902;49.042;9.092;2023-11-21T10:34:58;11.60;;;1.10;;
15603;SDS011;7902;49.042;9.092;2023-11-21T10:37:32;10.57;;;1.00;;
15603;SDS011;7902;49.042;9.092;2023-11-21T10:39:58;15.17;;;3.23;;
15603;SDS011;7902;49.042;9.092;2023-11-21T10:42:25;17.23;;;2.93;;
15603;SDS011;7902;49.042;9.092;2023-11-21T10:44:51;13.13;;;2.20;;
15603;SDS011;7902;49.042;9.092;2023-11-21T10:47:17;11.67;;;1.33;;
15603;SDS011;7902;49.042;9.092;2023-11-21T10:49:44;11.37;;;1.17;;
15603;SDS011;7902;49.042;9.092;2023-11-21T10:52:13;12.47;;;1.43;;
15603;SDS011;7902;49.042;9.092;2023-11-21T10:54:43;17.17;;;1.30;;
15603;SDS011;7902;49.042;9.092;2023-11-21T10:57:09;11.53;;;1.30;;
15603;SDS011;7902;49.042;9.092;2023-11-21T10:59:40;12.37;;;1.10;;
15603;SDS011;7902;49.042;9.092;2023-11-21T11:02:21;11.90;;;1.27;;
15603;SDS011;7902;49.042;9.092;2023-11-21T11:04:53;11.50;;;1.30;;
15603;SDS011;7902;49.042;9.092;2023-11-21T11:07:25;11.27;;;1.30;;
15603;SDS011;7902;49.042;9.092;2023-11-21T11:09:53;13.17;;;1.33;;
15603;SDS011;7902;49.042;9.092;2023-11-21T11:12:20;11.73;;;1.43;;
15603;SDS011;7902;49.042;9.092;2023-11-21T11:14:47;11.70;;;1.50;;
15603;SDS011;7902;49.042;9.092;2023-11-21T11:17:14;11.60;;;1.40;;
15603;SDS011;7902;49.042;9.092;2023-11-21T11:19:40;16.73;;;1.50;;
15603;SDS011;7902;49.042;9.092;2023-11-21T11:22:17;12.07;;;1.30;;
15603;SDS011;7902;49.042;9.092;2023-11-21T11:33:28;12.77;;;1.40;;
15603;SDS011;7902;49.042;9.092;2023-11-21T11:38:31;14.03;;;2.10;;
15603;SDS011;7902;49.042;9.092;2023-11-21T11:41:01;12.50;;;1.33;;
15603;SDS011;7902;49.042;9.092;2023-11-21T11:43:29;12.90;;;2.57;;
15603;SDS011;7902;49.042;9.092;2023-11-21T11:45:58;11.53;;;1.13;;
15603;SDS011;7902;49.042;9.092;2023-11-21T11:48:25;10.80;;;0.97;;
15603;SDS011;7902;49.042;9.092;2023-11-21T11:51:01;11.60;;;1.40;;
15603;SDS011;7902;49.042;9.092;2023-11-21T11:53:37;14.47;;;3.13;;
15603;SDS011;7902;49.042;9.092;2023-11-21T11:58:55;17.80;;;4.20;;
15603;SDS011;7902;49.042;9.092;2023-11-21T12:01:22;17.90;;;3.73;;
15603;SDS011;7902;49.042;9.092;2023-11-21T12:06:42;20.00;;;1.87;;
15603;SDS011;7902;49.042;9.092;2023-11-21T12:09:19;11.70;;;1.73;;
15603;SDS011;7902;49.042;9.092;2023-11-21T12:11:47;14.77;;;2.63;;
15603;SDS011;7902;49.042;9.092;2023-11-21T12:14:14;14.00;;;1.50;;
15603;SDS011;7902;49.042;9.092;2023-11-21T12:16:40;14.27;;;1.37;;
15603;SDS011;7902;49.042;9.092;2023-11-21T12:19:09;11.90;;;1.77;;
15603;SDS011;7902;49.042;9.092;2023-11-21T12:21:36;17.53;;;6.57;;
15603;SDS011;7902;49.042;9.092;2023-11-21T12:24:02;11.20;;;1.60;;
15603;SDS011;7902;49.042;9.092;2023-11-21T12:26:28;12.83;;;1.00;;
15603;SDS011;7902;49.042;9.092;2023-11-21T12:28:54;10.73;;;1.20;;
15603;SDS011;7902;49.042;9.092;2023-11-21T12:31:24;10.43;;;0.80;;
15603;SDS011;7902;49.042;9.092;2023-11-21T12:33:50;11.27;;;1.07;;
15603;SDS011;7902;49.042;9.092;2023-11-21T12:36:16;13.90;;;2.20;;
15603;SDS011;7902;49.042;9.092;2023-11-21T12:38:42;11.03;;;1.10;;
15603;SDS011;7902;49.042;9.092;2023-11-21T12:41:11;11.87;;;1.50;;
15603;SDS011;7902;49.042;9.092;2023-11-21T12:43:37;14.77;;;1.63;;
15603;SDS011;7902;49.042;9.092;2023-11-21T12:46:08;11.13;;;1.50;;
15603;SDS011;7902;49.042;9.092;2023-11-21T12:48:39;13.17;;;2.17;;
15603;SDS011;7902;49.042;9.092;2023-11-21T12:51:09;11.43;;;1.63;;
15603;SDS011;7902;49.042;9.092;2023-11-21T12:53:40;11.63;;;1.00;;
15603;SDS011;7902;49.042;9.092;2023-11-21T12:56:10;11.70;;;1.27;;
15603;SDS011;7902;49.042;9.092;2023-11-21T12:58:37;12.97;;;2.03;;
15603;SDS011;7902;49.042;9.092;2023-11-21T13:01:07;11.30;;;1.27;;
15603;SDS011;7902;49.042;9.092;2023-11-21T13:03:37;13.87;;;2.50;;
15603;SDS011;7902;49.042;9.092;2023-11-21T13:06:04;17.60;;;2.80;;
15603;SDS011;7902;49.042;9.092;2023-11-21T13:08:33;13.27;;;2.43;;
15603;SDS011;7902;49.042;9.092;2023-11-21T13:10:59;13.30;;;1.50;;
15603;SDS011;7902;49.042;9.092;2023-11-21T13:13:25;15.40;;;1.70;;
15603;SDS011;7902;49.042;9.092;2023-11-21T13:15:54;16.10;;;4.80;;
15603;SDS011;7902;49.042;9.092;2023-11-21T13:18:29;11.30;;;1.60;;
15603;SDS011;7902;49.042;9.092;2023-11-21T13:21:01;11.07;;;0.97;;
15603;SDS011;7902;49.042;9.092;2023-11-21T13:23:34;10.57;;;0.80;;
15603;SDS011;7902;49.042;9.092;2023-11-21T13:26:01;10.47;;;0.90;;
15603;SDS011;7902;49.042;9.092;2023-11-21T13:28:29;10.80;;;0.83;;
15603;SDS011;7902;49.042;9.092;2023-11-21T13:31:01;14.83;;;1.00;;
15603;SDS011;7902;49.042;9.092;2023-11-21T13:33:35;11.10;;;1.20;;
15603;SDS011;7902;49.042;9.092;2023-11-21T13:36:06;10.83;;;1.00;;
15603;SDS011;7902;49.042;9.092;2023-11-21T13:38:35;12.13;;;1.53;;
15603;SDS011;7902;49.042;9.092;2023-11-21T13:41:01;10.70;;;1.20;;
15603;SDS011;7902;49.042;9.092;2023-11-21T13:43:28;10.80;;;1.20;;
15603;SDS011;7902;49.042;9.092;2023-11-21T13:45:54;11.80;;;1.70;;
15603;SDS011;7902;49.042;9.092;2023-11-21T13:48:33;12.90;;;2.40;;
15603;SDS011;7902;49.042;9.092;2023-11-21T13:51:11;18.60;;;1.87;;
15603;SDS011;7902;49.042;9.092;2023-11-21T13:53:46;16.23;;;1.80;;
15603;SDS011;7902;49.042;9.092;2023-11-21T13:56:18;13.40;;;2.57;;
15603;SDS011;7902;49.042;9.092;2023-11-21T13:58:49;17.93;;;2.40;;
15603;SDS011;7902;49.042;9.092;2023-11-21T14:01:26;15.50;;;1.93;;
15603;SDS011;7902;49.042;9.092;2023-11-21T14:03:55;13.73;;;1.40;;
15603;SDS011;7902;49.042;9.092;2023-11-21T14:06:43;11.27;;;1.60;;
15603;SDS011;7902;49.042;9.092;2023-11-21T14:09:21;11.10;;;1.60;;
15603;SDS011;7902;49.042;9.092;2023-11-21T14:11:49;18.63;;;2.27;;
15603;SDS011;7902;49.042;9.092;2023-11-21T14:14:17;19.83;;;2.50;;
15603;SDS011;7902;49.042;9.092;2023-11-21T14:16:44;13.03;;;2.53;;
15603;SDS011;7902;49.042;9.092;2023-11-21T14:19:10;20.13;;;2.60;;
15603;SDS011;7902;49.042;9.092;2023-11-21T14:21:41;15.33;;;2.53;;
15603;SDS011;7902;49.042;9.092;2023-11-21T14:24:11;15.03;;;3.50;;
15603;SDS011;7902;49.042;9.092;2023-11-21T14:26:42;18.03;;;2.80;;
15603;SDS011;7902;49.042;9.092;2023-11-21T14:29:11;14.37;;;2.50;;
15603;SDS011;7902;49.042;9.092;2023-11-21T14:31:40;15.50;;;2.90;;
15603;SDS011;7902;49.042;9.092;2023-11-21T14:34:09;18.63;;;3.50;;
15603;SDS011;7902;49.042;9.092;2023-11-21T14:36:37;17.70;;;2.50;;
15603;SDS011;7902;49.042;9.092;2023-11-21T14:39:05;15.40;;;2.53;;
15603;SDS011;7902;49.042;9.092;2023-11-21T14:41:35;13.63;;;3.00;;
15603;SDS011;7902;49.042;9.092;2023-11-21T14:44:02;13.33;;;2.40;;
15603;SDS011;7902;49.042;9.092;2023-11-21T14:46:29;13.37;;;3.07;;
15603;SDS011;7902;49.042;9.092;2023-11-21T14:48:56;20.87;;;2.90;;
15603;SDS011;7902;49.042;9.092;2023-11-21T14:51:30;13.30;;;3.00;;
15603;SDS011;7902;49.042;9.092;2023-11-21T14:54:18;12.70;;;2.30;;
15603;SDS011;7902;49.042;9.092;2023-11-21T14:56:56;14.83;;;2.83;;
15603;SDS011;7902;49.042;9.092;2023-11-21T14:59:22;16.67;;;4.00;;
15603;SDS011;7902;49.042;9.092;2023-11-21T15:01:48;17.50;;;4.97;;
15603;SDS011;7902;49.042;9.092;2023-11-21T15:04:21;22.20;;;4.80;;
15603;SDS011;7902;49.042;9.092;2023-11-21T15:07:04;19.17;;;4.60;;
15603;SDS011;7902;49.042;9.092;2023-11-21T15:09:30;18.60;;;4.00;;
15603;SDS011;7902;49.042;9.092;2023-11-21T15:11:57;21.97;;;3.30;;
15603;SDS011;7902;49.042;9.092;2023-11-21T15:14:29;15.60;;;3.50;;